Accueil
METAR-TAF:

METAR-TAF

Aéroports :

Clermont-Ferrand, France

Aéroport de Clermont-Ferrand Auvergne

latitude: 45-47N, longitude: 003-10E, altitude: 332 m

Observation

Le bulletin a été fait il y a 27 minutes, à 17:00 UTC
Vent 3 kt de direction variable
Température 21°C
Humidité 43%
Pression 1017 hPa
Visibilité 10 km ou plus
Quelques nuages à une hauteur de 800 ft

METAR: LFLC 211700Z AUTO VRB03KT 9999 FEW008 21/08 Q1017 NOSIG

Heure: 19:27 (17:27 UTC)

Prévision

Le bulletin a été fait il y a 3 heures et 27 minutes, à 14:00 UTC
Prévision valable du 21 à 15 UTC au 22 à 15 UTC
Vent 3 kt de direction variable
Visibilité 10 km ou plus
pas de nuages en-dessous de 1500 mètres et pas de cumulonimbus.

TAF: LFLC 211400Z 2115/2215 VRB03KT CAVOK

Observations et prévisions météorologiques de plus de 4000 aéroports (messages METAR et TAF).

Les stations disponibles sont représentées par des disques jaunes et rouges sur la carte.

Passer la souris dessus pour voir le nom de la station.

Cliquer dessus pour voir les observations et prévisions météorologiques.

Pour changer de carte: cliquez sur les boutons verts avec une croix noire pour zoomer, sur le bouton vert avec un tiret pour effectuer un zoom arrière, ou sur les flèches vertes pour les cartes adjacentes.


METAR-TAF: